sensor_id;sensor_type;location;lat;lon;timestamp;P1;durP1;ratioP1;P2;durP2;ratioP2
78995;SDS011;68401;47.192;-1.552;2024-03-06T00:02:22;13.63;;;4.13;;
78995;SDS011;68401;47.192;-1.552;2024-03-06T00:04:47;18.75;;;4.60;;
78995;SDS011;68401;47.192;-1.552;2024-03-06T00:07:12;13.43;;;3.95;;
78995;SDS011;68401;47.192;-1.552;2024-03-06T00:09:38;12.57;;;4.82;;
78995;SDS011;68401;47.192;-1.552;2024-03-06T00:12:03;17.77;;;3.78;;
78995;SDS011;68401;47.192;-1.552;2024-03-06T00:14:29;13.10;;;4.30;;
78995;SDS011;68401;47.192;-1.552;2024-03-06T00:16:54;17.80;;;3.90;;
78995;SDS011;68401;47.192;-1.552;2024-03-06T00:19:20;10.75;;;4.18;;
78995;SDS011;68401;47.192;-1.552;2024-03-06T00:21:49;15.95;;;5.15;;
78995;SDS011;68401;47.192;-1.552;2024-03-06T00:24:15;16.02;;;3.95;;
78995;SDS011;68401;47.192;-1.552;2024-03-06T00:26:44;9.88;;;4.18;;
78995;SDS011;68401;47.192;-1.552;2024-03-06T00:29:10;11.02;;;4.07;;
78995;SDS011;68401;47.192;-1.552;2024-03-06T00:31:36;15.40;;;4.30;;
78995;SDS011;68401;47.192;-1.552;2024-03-06T00:34:03;12.45;;;4.30;;
78995;SDS011;68401;47.192;-1.552;2024-03-06T00:36:28;18.83;;;4.95;;
78995;SDS011;68401;47.192;-1.552;2024-03-06T00:38:54;11.13;;;5.32;;
78995;SDS011;68401;47.192;-1.552;2024-03-06T00:41:19;14.85;;;4.95;;
78995;SDS011;68401;47.192;-1.552;2024-03-06T00:43:50;8.60;;;4.25;;
78995;SDS011;68401;47.192;-1.552;2024-03-06T00:46:15;13.15;;;4.88;;
78995;SDS011;68401;47.192;-1.552;2024-03-06T00:48:41;14.45;;;4.90;;
78995;SDS011;68401;47.192;-1.552;2024-03-06T00:51:07;11.35;;;4.68;;
78995;SDS011;68401;47.192;-1.552;2024-03-06T00:53:33;15.05;;;4.82;;
78995;SDS011;68401;47.192;-1.552;2024-03-06T00:55:59;12.60;;;4.57;;
78995;SDS011;68401;47.192;-1.552;2024-03-06T00:58:25;10.93;;;4.63;;
78995;SDS011;68401;47.192;-1.552;2024-03-06T01:00:50;17.13;;;5.35;;
78995;SDS011;68401;47.192;-1.552;2024-03-06T01:03:16;17.90;;;5.05;;
78995;SDS011;68401;47.192;-1.552;2024-03-06T01:05:41;12.32;;;5.05;;
78995;SDS011;68401;47.192;-1.552;2024-03-06T01:08:07;10.90;;;5.25;;
78995;SDS011;68401;47.192;-1.552;2024-03-06T01:10:32;17.95;;;5.63;;
78995;SDS011;68401;47.192;-1.552;2024-03-06T01:12:58;14.65;;;5.25;;
78995;SDS011;68401;47.192;-1.552;2024-03-06T01:15:23;15.90;;;5.47;;
78995;SDS011;68401;47.192;-1.552;2024-03-06T01:17:51;13.32;;;4.72;;
78995;SDS011;68401;47.192;-1.552;2024-03-06T01:20:16;13.75;;;5.25;;
78995;SDS011;68401;47.192;-1.552;2024-03-06T01:22:42;19.50;;;5.63;;
78995;SDS011;68401;47.192;-1.552;2024-03-06T01:25:07;19.58;;;5.05;;
78995;SDS011;68401;47.192;-1.552;2024-03-06T01:27:33;10.27;;;4.43;;
78995;SDS011;68401;47.192;-1.552;2024-03-06T01:29:58;11.32;;;5.18;;
78995;SDS011;68401;47.192;-1.552;2024-03-06T01:32:24;13.80;;;5.93;;
78995;SDS011;68401;47.192;-1.552;2024-03-06T01:34:49;11.93;;;4.68;;
78995;SDS011;68401;47.192;-1.552;2024-03-06T01:37:15;13.63;;;5.47;;
78995;SDS011;68401;47.192;-1.552;2024-03-06T01:39:40;9.23;;;4.60;;
78995;SDS011;68401;47.192;-1.552;2024-03-06T01:42:06;16.00;;;5.63;;
78995;SDS011;68401;47.192;-1.552;2024-03-06T01:44:31;19.25;;;5.55;;
78995;SDS011;68401;47.192;-1.552;2024-03-06T01:46:57;12.85;;;5.07;;
78995;SDS011;68401;47.192;-1.552;2024-03-06T01:49:22;10.45;;;4.53;;
78995;SDS011;68401;47.192;-1.552;2024-03-06T01:51:49;13.75;;;4.28;;
78995;SDS011;68401;47.192;-1.552;2024-03-06T01:54:16;14.13;;;5.53;;
78995;SDS011;68401;47.192;-1.552;2024-03-06T01:56:46;15.10;;;5.55;;
78995;SDS011;68401;47.192;-1.552;2024-03-06T01:59:13;14.18;;;5.75;;
78995;SDS011;68401;47.192;-1.552;2024-03-06T02:01:41;11.15;;;5.10;;
78995;SDS011;68401;47.192;-1.552;2024-03-06T02:04:10;10.35;;;5.07;;
78995;SDS011;68401;47.192;-1.552;2024-03-06T02:06:38;11.00;;;4.93;;
78995;SDS011;68401;47.192;-1.552;2024-03-06T02:09:04;13.13;;;4.78;;
78995;SDS011;68401;47.192;-1.552;2024-03-06T02:11:29;10.93;;;5.28;;
78995;SDS011;68401;47.192;-1.552;2024-03-06T02:13:55;12.43;;;4.43;;
78995;SDS011;68401;47.192;-1.552;2024-03-06T02:16:21;9.63;;;4.53;;
78995;SDS011;68401;47.192;-1.552;2024-03-06T02:18:53;11.73;;;4.65;;
78995;SDS011;68401;47.192;-1.552;2024-03-06T02:21:22;11.43;;;4.22;;
78995;SDS011;68401;47.192;-1.552;2024-03-06T02:23:49;15.45;;;5.55;;
78995;SDS011;68401;47.192;-1.552;2024-03-06T02:26:16;11.75;;;5.55;;
78995;SDS011;68401;47.192;-1.552;2024-03-06T02:28:49;10.80;;;4.95;;
78995;SDS011;68401;47.192;-1.552;2024-03-06T02:31:19;12.25;;;6.05;;
78995;SDS011;68401;47.192;-1.552;2024-03-06T02:33:48;13.45;;;4.55;;
78995;SDS011;68401;47.192;-1.552;2024-03-06T02:36:14;9.45;;;4.97;;
78995;SDS011;68401;47.192;-1.552;2024-03-06T02:38:40;8.35;;;5.35;;
78995;SDS011;68401;47.192;-1.552;2024-03-06T02:41:06;15.02;;;5.90;;
78995;SDS011;68401;47.192;-1.552;2024-03-06T02:43:32;19.52;;;6.72;;
78995;SDS011;68401;47.192;-1.552;2024-03-06T02:45:58;17.33;;;5.78;;
78995;SDS011;68401;47.192;-1.552;2024-03-06T02:48:23;12.82;;;6.00;;
78995;SDS011;68401;47.192;-1.552;2024-03-06T02:50:49;15.75;;;6.05;;
78995;SDS011;68401;47.192;-1.552;2024-03-06T02:53:14;12.23;;;5.88;;
78995;SDS011;68401;47.192;-1.552;2024-03-06T02:55:40;14.25;;;5.47;;
78995;SDS011;68401;47.192;-1.552;2024-03-06T02:58:05;12.55;;;5.53;;
78995;SDS011;68401;47.192;-1.552;2024-03-06T03:00:30;13.15;;;4.63;;
78995;SDS011;68401;47.192;-1.552;2024-03-06T03:02:58;15.23;;;5.15;;
78995;SDS011;68401;47.192;-1.552;2024-03-06T03:05:24;8.52;;;5.10;;
78995;SDS011;68401;47.192;-1.552;2024-03-06T03:07:50;11.55;;;5.00;;
78995;SDS011;68401;47.192;-1.552;2024-03-06T03:10:15;15.07;;;5.82;;
78995;SDS011;68401;47.192;-1.552;2024-03-06T03:12:41;12.13;;;5.18;;
78995;SDS011;68401;47.192;-1.552;2024-03-06T03:15:07;13.95;;;5.25;;
78995;SDS011;68401;47.192;-1.552;2024-03-06T03:17:34;14.68;;;6.05;;
78995;SDS011;68401;47.192;-1.552;2024-03-06T03:20:02;11.57;;;4.57;;
78995;SDS011;68401;47.192;-1.552;2024-03-06T03:22:36;13.18;;;4.60;;
78995;SDS011;68401;47.192;-1.552;2024-03-06T03:25:03;10.80;;;4.90;;
78995;SDS011;68401;47.192;-1.552;2024-03-06T03:27:32;10.52;;;4.57;;
78995;SDS011;68401;47.192;-1.552;2024-03-06T03:29:58;9.18;;;4.80;;
78995;SDS011;68401;47.192;-1.552;2024-03-06T03:32:23;15.18;;;5.70;;
78995;SDS011;68401;47.192;-1.552;2024-03-06T03:34:49;11.88;;;4.75;;
78995;SDS011;68401;47.192;-1.552;2024-03-06T03:37:14;11.50;;;4.93;;
78995;SDS011;68401;47.192;-1.552;2024-03-06T03:39:40;12.77;;;4.60;;
78995;SDS011;68401;47.192;-1.552;2024-03-06T03:42:07;9.07;;;4.28;;
78995;SDS011;68401;47.192;-1.552;2024-03-06T03:44:32;12.57;;;5.15;;
78995;SDS011;68401;47.192;-1.552;2024-03-06T03:46:58;13.10;;;5.20;;
78995;SDS011;68401;47.192;-1.552;2024-03-06T03:49:23;13.05;;;5.35;;
78995;SDS011;68401;47.192;-1.552;2024-03-06T03:51:49;9.82;;;4.95;;
78995;SDS011;68401;47.192;-1.552;2024-03-06T03:54:14;11.23;;;4.40;;
78995;SDS011;68401;47.192;-1.552;2024-03-06T03:56:40;16.27;;;4.72;;
78995;SDS011;68401;47.192;-1.552;2024-03-06T03:59:05;9.35;;;4.43;;
78995;SDS011;68401;47.192;-1.552;2024-03-06T04:01:31;10.70;;;4.47;;
78995;SDS011;68401;47.192;-1.552;2024-03-06T04:04:03;11.10;;;4.47;;
78995;SDS011;68401;47.192;-1.552;2024-03-06T04:06:28;10.82;;;4.85;;
78995;SDS011;68401;47.192;-1.552;2024-03-06T04:08:54;9.88;;;4.35;;
78995;SDS011;68401;47.192;-1.552;2024-03-06T04:11:19;12.20;;;5.05;;
78995;SDS011;68401;47.192;-1.552;2024-03-06T04:13:48;9.65;;;4.55;;
78995;SDS011;68401;47.192;-1.552;2024-03-06T04:16:17;11.60;;;4.65;;
78995;SDS011;68401;47.192;-1.552;2024-03-06T04:18:46;11.48;;;4.82;;
78995;SDS011;68401;47.192;-1.552;2024-03-06T04:21:11;10.00;;;5.00;;
78995;SDS011;68401;47.192;-1.552;2024-03-06T04:23:39;15.95;;;5.03;;
78995;SDS011;68401;47.192;-1.552;2024-03-06T04:26:05;15.00;;;4.97;;
78995;SDS011;68401;47.192;-1.552;2024-03-06T04:28:31;10.80;;;4.65;;
78995;SDS011;68401;47.192;-1.552;2024-03-06T04:30:56;13.85;;;4.85;;
78995;SDS011;68401;47.192;-1.552;2024-03-06T04:33:28;11.43;;;4.43;;
78995;SDS011;68401;47.192;-1.552;2024-03-06T04:35:54;12.07;;;4.40;;
78995;SDS011;68401;47.192;-1.552;2024-03-06T04:38:20;12.27;;;4.82;;
78995;SDS011;68401;47.192;-1.552;2024-03-06T04:40:47;8.07;;;5.13;;
78995;SDS011;68401;47.192;-1.552;2024-03-06T04:43:13;19.83;;;5.68;;
78995;SDS011;68401;47.192;-1.552;2024-03-06T04:45:38;10.18;;;4.85;;
78995;SDS011;68401;47.192;-1.552;2024-03-06T04:48:04;15.10;;;5.22;;
78995;SDS011;68401;47.192;-1.552;2024-03-06T04:50:30;10.73;;;5.07;;
78995;SDS011;68401;47.192;-1.552;2024-03-06T04:52:55;9.38;;;4.45;;
78995;SDS011;68401;47.192;-1.552;2024-03-06T04:55:21;12.00;;;5.00;;
78995;SDS011;68401;47.192;-1.552;2024-03-06T04:57:48;11.85;;;5.15;;
78995;SDS011;68401;47.192;-1.552;2024-03-06T05:00:13;13.25;;;5.20;;
78995;SDS011;68401;47.192;-1.552;2024-03-06T05:02:39;9.80;;;5.45;;
78995;SDS011;68401;47.192;-1.552;2024-03-06T05:05:06;6.55;;;4.35;;
78995;SDS011;68401;47.192;-1.552;2024-03-06T05:07:33;9.48;;;4.40;;
78995;SDS011;68401;47.192;-1.552;2024-03-06T05:09:59;10.60;;;4.32;;
78995;SDS011;68401;47.192;-1.552;2024-03-06T05:12:25;11.80;;;5.43;;
78995;SDS011;68401;47.192;-1.552;2024-03-06T05:14:54;11.52;;;4.82;;
78995;SDS011;68401;47.192;-1.552;2024-03-06T05:17:20;9.80;;;5.47;;
78995;SDS011;68401;47.192;-1.552;2024-03-06T05:19:46;19.83;;;6.32;;
78995;SDS011;68401;47.192;-1.552;2024-03-06T05:22:15;13.43;;;5.40;;
78995;SDS011;68401;47.192;-1.552;2024-03-06T05:24:42;14.18;;;5.47;;
78995;SDS011;68401;47.192;-1.552;2024-03-06T05:27:07;10.82;;;4.93;;
78995;SDS011;68401;47.192;-1.552;2024-03-06T05:29:34;15.98;;;5.03;;
78995;SDS011;68401;47.192;-1.552;2024-03-06T05:32:01;11.98;;;5.07;;
78995;SDS011;68401;47.192;-1.552;2024-03-06T05:34:27;10.43;;;7.88;;
78995;SDS011;68401;47.192;-1.552;2024-03-06T05:36:52;18.02;;;13.25;;
78995;SDS011;68401;47.192;-1.552;2024-03-06T05:39:21;20.33;;;16.95;;
78995;SDS011;68401;47.192;-1.552;2024-03-06T05:41:46;14.07;;;6.47;;
78995;SDS011;68401;47.192;-1.552;2024-03-06T05:44:12;12.13;;;5.53;;
78995;SDS011;68401;47.192;-1.552;2024-03-06T05:46:37;15.80;;;5.18;;
78995;SDS011;68401;47.192;-1.552;2024-03-06T05:49:03;16.77;;;5.63;;
78995;SDS011;68401;47.192;-1.552;2024-03-06T05:51:29;11.80;;;4.57;;
78995;SDS011;68401;47.192;-1.552;2024-03-06T05:53:55;9.45;;;4.50;;
78995;SDS011;68401;47.192;-1.552;2024-03-06T05:56:21;9.02;;;4.63;;
78995;SDS011;68401;47.192;-1.552;2024-03-06T05:58:46;12.02;;;5.22;;
78995;SDS011;68401;47.192;-1.552;2024-03-06T06:01:12;11.85;;;6.03;;
78995;SDS011;68401;47.192;-1.552;2024-03-06T06:03:45;11.63;;;5.22;;
78995;SDS011;68401;47.192;-1.552;2024-03-06T06:06:11;10.75;;;5.32;;
78995;SDS011;68401;47.192;-1.552;2024-03-06T06:08:36;14.40;;;6.25;;
78995;SDS011;68401;47.192;-1.552;2024-03-06T06:11:02;17.50;;;6.13;;
78995;SDS011;68401;47.192;-1.552;2024-03-06T06:13:30;11.23;;;6.22;;
78995;SDS011;68401;47.192;-1.552;2024-03-06T06:15:59;13.98;;;5.18;;
78995;SDS011;68401;47.192;-1.552;2024-03-06T06:18:27;12.40;;;4.80;;
78995;SDS011;68401;47.192;-1.552;2024-03-06T06:20:53;32.22;;;24.05;;
78995;SDS011;68401;47.192;-1.552;2024-03-06T06:23:21;13.68;;;8.45;;
78995;SDS011;68401;47.192;-1.552;2024-03-06T06:25:46;15.52;;;7.30;;
78995;SDS011;68401;47.192;-1.552;2024-03-06T06:28:12;12.82;;;6.10;;
78995;SDS011;68401;47.192;-1.552;2024-03-06T06:30:37;14.18;;;6.03;;
78995;SDS011;68401;47.192;-1.552;2024-03-06T06:33:05;14.88;;;6.25;;
78995;SDS011;68401;47.192;-1.552;2024-03-06T06:35:31;10.70;;;5.82;;
78995;SDS011;68401;47.192;-1.552;2024-03-06T06:38:00;12.23;;;5.63;;
78995;SDS011;68401;47.192;-1.552;2024-03-06T06:40:26;12.32;;;4.70;;
78995;SDS011;68401;47.192;-1.552;2024-03-06T06:42:53;12.05;;;5.25;;
78995;SDS011;68401;47.192;-1.552;2024-03-06T06:45:18;14.40;;;5.63;;
78995;SDS011;68401;47.192;-1.552;2024-03-06T06:47:47;13.57;;;6.45;;
78995;SDS011;68401;47.192;-1.552;2024-03-06T06:50:14;15.48;;;5.28;;
78995;SDS011;68401;47.192;-1.552;2024-03-06T06:52:40;11.05;;;5.55;;
78995;SDS011;68401;47.192;-1.552;2024-03-06T06:55:08;15.60;;;5.65;;
78995;SDS011;68401;47.192;-1.552;2024-03-06T06:57:36;14.35;;;5.80;;
78995;SDS011;68401;47.192;-1.552;2024-03-06T07:00:02;17.65;;;6.07;;
78995;SDS011;68401;47.192;-1.552;2024-03-06T07:02:36;12.93;;;5.90;;
78995;SDS011;68401;47.192;-1.552;2024-03-06T07:05:03;10.75;;;5.32;;
78995;SDS011;68401;47.192;-1.552;2024-03-06T07:07:29;16.48;;;6.13;;
78995;SDS011;68401;47.192;-1.552;2024-03-06T07:09:55;17.10;;;6.25;;
78995;SDS011;68401;47.192;-1.552;2024-03-06T07:12:21;9.35;;;5.70;;
78995;SDS011;68401;47.192;-1.552;2024-03-06T07:14:47;13.88;;;5.65;;
78995;SDS011;68401;47.192;-1.552;2024-03-06T07:17:12;10.73;;;6.82;;
78995;SDS011;68401;47.192;-1.552;2024-03-06T07:19:38;9.60;;;5.78;;
78995;SDS011;68401;47.192;-1.552;2024-03-06T07:22:04;18.50;;;6.43;;
78995;SDS011;68401;47.192;-1.552;2024-03-06T07:24:30;13.20;;;7.57;;
78995;SDS011;68401;47.192;-1.552;2024-03-06T07:26:55;13.30;;;6.22;;
78995;SDS011;68401;47.192;-1.552;2024-03-06T07:29:21;13.13;;;6.25;;
78995;SDS011;68401;47.192;-1.552;2024-03-06T07:31:49;14.95;;;6.05;;
78995;SDS011;68401;47.192;-1.552;2024-03-06T07:34:14;15.32;;;6.18;;
78995;SDS011;68401;47.192;-1.552;2024-03-06T07:36:40;9.68;;;5.93;;
78995;SDS011;68401;47.192;-1.552;2024-03-06T07:39:06;17.75;;;6.55;;
78995;SDS011;68401;47.192;-1.552;2024-03-06T07:41:32;14.32;;;6.22;;
78995;SDS011;68401;47.192;-1.552;2024-03-06T07:43:58;11.77;;;6.30;;
78995;SDS011;68401;47.192;-1.552;2024-03-06T07:46:25;18.58;;;5.85;;
78995;SDS011;68401;47.192;-1.552;2024-03-06T07:48:50;12.35;;;5.95;;
78995;SDS011;68401;47.192;-1.552;2024-03-06T07:51:16;11.65;;;5.68;;
78995;SDS011;68401;47.192;-1.552;2024-03-06T07:53:42;14.85;;;6.53;;
78995;SDS011;68401;47.192;-1.552;2024-03-06T07:56:09;15.98;;;6.90;;
78995;SDS011;68401;47.192;-1.552;2024-03-06T07:58:38;13.82;;;6.30;;
78995;SDS011;68401;47.192;-1.552;2024-03-06T08:01:04;13.60;;;5.55;;
78995;SDS011;68401;47.192;-1.552;2024-03-06T08:03:32;9.85;;;5.75;;
78995;SDS011;68401;47.192;-1.552;2024-03-06T08:05:59;10.27;;;5.68;;
78995;SDS011;68401;47.192;-1.552;2024-03-06T08:08:30;9.85;;;5.57;;
78995;SDS011;68401;47.192;-1.552;2024-03-06T08:10:56;9.27;;;4.63;;
78995;SDS011;68401;47.192;-1.552;2024-03-06T08:13:21;10.57;;;4.55;;
78995;SDS011;68401;47.192;-1.552;2024-03-06T08:15:47;11.52;;;4.68;;
78995;SDS011;68401;47.192;-1.552;2024-03-06T08:18:12;7.90;;;4.68;;
78995;SDS011;68401;47.192;-1.552;2024-03-06T08:20:39;8.20;;;5.28;;
78995;SDS011;68401;47.192;-1.552;2024-03-06T08:23:05;10.68;;;4.63;;
78995;SDS011;68401;47.192;-1.552;2024-03-06T08:25:30;8.00;;;4.80;;
78995;SDS011;68401;47.192;-1.552;2024-03-06T08:27:57;8.90;;;4.53;;
78995;SDS011;68401;47.192;-1.552;2024-03-06T08:30:24;11.55;;;6.03;;
78995;SDS011;68401;47.192;-1.552;2024-03-06T08:32:49;8.63;;;4.55;;
78995;SDS011;68401;47.192;-1.552;2024-03-06T08:35:16;11.20;;;4.53;;
78995;SDS011;68401;47.192;-1.552;2024-03-06T08:37:46;11.55;;;4.70;;
78995;SDS011;68401;47.192;-1.552;2024-03-06T08:42:43;11.43;;;4.45;;
78995;SDS011;68401;47.192;-1.552;2024-03-06T08:45:12;10.80;;;4.30;;
78995;SDS011;68401;47.192;-1.552;2024-03-06T08:47:39;10.73;;;4.65;;
78995;SDS011;68401;47.192;-1.552;2024-03-06T08:50:05;8.65;;;4.45;;
78995;SDS011;68401;47.192;-1.552;2024-03-06T08:52:32;11.52;;;4.28;;
78995;SDS011;68401;47.192;-1.552;2024-03-06T08:54:59;11.32;;;4.35;;
78995;SDS011;68401;47.192;-1.552;2024-03-06T08:57:25;12.63;;;4.55;;
78995;SDS011;68401;47.192;-1.552;2024-03-06T08:59:53;10.45;;;4.15;;
78995;SDS011;68401;47.192;-1.552;2024-03-06T09:02:19;11.75;;;4.78;;
78995;SDS011;68401;47.192;-1.552;2024-03-06T09:04:45;9.23;;;4.32;;
78995;SDS011;68401;47.192;-1.552;2024-03-06T09:07:11;8.55;;;4.10;;
78995;SDS011;68401;47.192;-1.552;2024-03-06T09:09:37;9.48;;;4.38;;
78995;SDS011;68401;47.192;-1.552;2024-03-06T09:12:04;11.35;;;4.75;;
78995;SDS011;68401;47.192;-1.552;2024-03-06T09:14:35;6.88;;;4.07;;
78995;SDS011;68401;47.192;-1.552;2024-03-06T09:17:01;10.82;;;4.25;;
78995;SDS011;68401;47.192;-1.552;2024-03-06T09:19:27;8.02;;;4.05;;
78995;SDS011;68401;47.192;-1.552;2024-03-06T09:21:53;8.40;;;4.43;;
78995;SDS011;68401;47.192;-1.552;2024-03-06T09:24:20;10.40;;;3.90;;
78995;SDS011;68401;47.192;-1.552;2024-03-06T09:26:47;7.22;;;3.13;;
78995;SDS011;68401;47.192;-1.552;2024-03-06T09:29:13;51.85;;;21.58;;
78995;SDS011;68401;47.192;-1.552;2024-03-06T09:31:38;5.68;;;3.75;;
78995;SDS011;68401;47.192;-1.552;2024-03-06T09:34:03;14.32;;;9.00;;
78995;SDS011;68401;47.192;-1.552;2024-03-06T09:36:29;6.93;;;2.40;;
78995;SDS011;68401;47.192;-1.552;2024-03-06T09:38:55;3.47;;;2.30;;
78995;SDS011;68401;47.192;-1.552;2024-03-06T09:41:21;6.00;;;3.63;;
78995;SDS011;68401;47.192;-1.552;2024-03-06T09:43:47;5.75;;;2.67;;
78995;SDS011;68401;47.192;-1.552;2024-03-06T09:46:13;7.93;;;7.22;;
78995;SDS011;68401;47.192;-1.552;2024-03-06T09:48:48;14.93;;;13.73;;
78995;SDS011;68401;47.192;-1.552;2024-03-06T09:51:14;3.85;;;2.00;;
78995;SDS011;68401;47.192;-1.552;2024-03-06T09:53:40;4.05;;;2.33;;
78995;SDS011;68401;47.192;-1.552;2024-03-06T09:56:08;5.68;;;2.80;;
78995;SDS011;68401;47.192;-1.552;2024-03-06T09:58:36;4.72;;;4.22;;
78995;SDS011;68401;47.192;-1.552;2024-03-06T10:01:02;4.93;;;3.05;;
78995;SDS011;68401;47.192;-1.552;2024-03-06T10:03:29;11.68;;;4.28;;
78995;SDS011;68401;47.192;-1.552;2024-03-06T10:05:55;4.22;;;2.25;;
78995;SDS011;68401;47.192;-1.552;2024-03-06T10:08:21;2.95;;;1.70;;
78995;SDS011;68401;47.192;-1.552;2024-03-06T10:10:50;3.45;;;2.92;;
78995;SDS011;68401;47.192;-1.552;2024-03-06T10:13:25;2.30;;;1.80;;
78995;SDS011;68401;47.192;-1.552;2024-03-06T10:15:59;3.70;;;2.03;;
78995;SDS011;68401;47.192;-1.552;2024-03-06T10:18:26;2.53;;;1.20;;
78995;SDS011;68401;47.192;-1.552;2024-03-06T10:20:52;3.08;;;1.35;;
78995;SDS011;68401;47.192;-1.552;2024-03-06T10:23:18;4.28;;;3.83;;
78995;SDS011;68401;47.192;-1.552;2024-03-06T10:25:45;3.63;;;3.17;;
78995;SDS011;68401;47.192;-1.552;2024-03-06T10:28:15;2.95;;;1.80;;
78995;SDS011;68401;47.192;-1.552;2024-03-06T10:30:42;2.92;;;2.05;;
78995;SDS011;68401;47.192;-1.552;2024-03-06T10:33:08;3.30;;;1.38;;
78995;SDS011;68401;47.192;-1.552;2024-03-06T10:35:34;6.65;;;1.50;;
78995;SDS011;68401;47.192;-1.552;2024-03-06T10:38:03;4.32;;;0.90;;
78995;SDS011;68401;47.192;-1.552;2024-03-06T10:40:36;3.90;;;1.20;;
78995;SDS011;68401;47.192;-1.552;2024-03-06T10:43:03;2.95;;;0.77;;
78995;SDS011;68401;47.192;-1.552;2024-03-06T10:48:16;2.65;;;1.10;;
78995;SDS011;68401;47.192;-1.552;2024-03-06T10:50:43;3.15;;;1.00;;
78995;SDS011;68401;47.192;-1.552;2024-03-06T10:53:10;1.90;;;1.20;;
78995;SDS011;68401;47.192;-1.552;2024-03-06T10:55:39;2.22;;;0.88;;
78995;SDS011;68401;47.192;-1.552;2024-03-06T10:58:05;2.60;;;1.00;;
78995;SDS011;68401;47.192;-1.552;2024-03-06T11:00:34;2.95;;;0.90;;
78995;SDS011;68401;47.192;-1.552;2024-03-06T11:03:02;1.85;;;1.20;;
78995;SDS011;68401;47.192;-1.552;2024-03-06T11:05:40;2.55;;;0.98;;
78995;SDS011;68401;47.192;-1.552;2024-03-06T11:08:12;1.48;;;1.02;;
78995;SDS011;68401;47.192;-1.552;2024-03-06T11:10:39;1.55;;;1.10;;
78995;SDS011;68401;47.192;-1.552;2024-03-06T11:13:48;1.38;;;0.70;;
78995;SDS011;68401;47.192;-1.552;2024-03-06T11:16:13;1.60;;;1.10;;
78995;SDS011;68401;47.192;-1.552;2024-03-06T11:23:30;1.80;;;0.80;;
78995;SDS011;68401;47.192;-1.552;2024-03-06T11:26:00;4.13;;;1.25;;
78995;SDS011;68401;47.192;-1.552;2024-03-06T11:28:29;2.65;;;1.00;;
78995;SDS011;68401;47.192;-1.552;2024-03-06T11:30:56;2.22;;;1.10;;
78995;SDS011;68401;47.192;-1.552;2024-03-06T11:33:28;3.25;;;1.27;;
78995;SDS011;68401;47.192;-1.552;2024-03-06T11:41:23;2.08;;;1.20;;
78995;SDS011;68401;47.192;-1.552;2024-03-06T11:43:50;1.90;;;1.00;;
78995;SDS011;68401;47.192;-1.552;2024-03-06T11:46:18;3.28;;;1.30;;
78995;SDS011;68401;47.192;-1.552;2024-03-06T11:48:54;1.85;;;1.08;;
78995;SDS011;68401;47.192;-1.552;2024-03-06T11:51:20;1.83;;;1.15;;
78995;SDS011;68401;47.192;-1.552;2024-03-06T11:56:14;1.52;;;1.02;;
78995;SDS011;68401;47.192;-1.552;2024-03-06T11:58:40;2.22;;;1.20;;
78995;SDS011;68401;47.192;-1.552;2024-03-06T12:01:05;3.60;;;1.35;;
78995;SDS011;68401;47.192;-1.552;2024-03-06T12:03:31;2.10;;;1.17;;
78995;SDS011;68401;47.192;-1.552;2024-03-06T12:05:57;2.17;;;0.93;;
78995;SDS011;68401;47.192;-1.552;2024-03-06T12:08:24;1.20;;;0.85;;
78995;SDS011;68401;47.192;-1.552;2024-03-06T12:10:49;1.02;;;0.85;;
78995;SDS011;68401;47.192;-1.552;2024-03-06T12:13:15;2.10;;;0.98;;
78995;SDS011;68401;47.192;-1.552;2024-03-06T12:15:46;1.58;;;1.02;;
78995;SDS011;68401;47.192;-1.552;2024-03-06T12:18:12;2.00;;;1.20;;
78995;SDS011;68401;47.192;-1.552;2024-03-06T12:20:41;2.35;;;1.10;;
78995;SDS011;68401;47.192;-1.552;2024-03-06T12:23:18;1.52;;;1.00;;
78995;SDS011;68401;47.192;-1.552;2024-03-06T12:26:08;1.65;;;0.90;;
78995;SDS011;68401;47.192;-1.552;2024-03-06T12:28:36;2.03;;;0.98;;
78995;SDS011;68401;47.192;-1.552;2024-03-06T12:31:05;1.55;;;1.25;;
78995;SDS011;68401;47.192;-1.552;2024-03-06T12:33:33;1.20;;;1.08;;
78995;SDS011;68401;47.192;-1.552;2024-03-06T12:38:31;2.25;;;1.00;;
78995;SDS011;68401;47.192;-1.552;2024-03-06T12:40:57;2.10;;;1.30;;
78995;SDS011;68401;47.192;-1.552;2024-03-06T12:43:25;1.92;;;1.00;;
78995;SDS011;68401;47.192;-1.552;2024-03-06T12:45:53;4.35;;;1.67;;
78995;SDS011;68401;47.192;-1.552;2024-03-06T12:48:20;1.88;;;1.15;;
78995;SDS011;68401;47.192;-1.552;2024-03-06T12:50:46;1.63;;;0.90;;
78995;SDS011;68401;47.192;-1.552;2024-03-06T12:53:16;2.80;;;1.15;;
78995;SDS011;68401;47.192;-1.552;2024-03-06T12:55:44;2.28;;;0.90;;
78995;SDS011;68401;47.192;-1.552;2024-03-06T12:58:11;1.48;;;0.75;;
78995;SDS011;68401;47.192;-1.552;2024-03-06T13:00:37;1.25;;;0.80;;
78995;SDS011;68401;47.192;-1.552;2024-03-06T13:03:03;1.27;;;0.93;;
78995;SDS011;68401;47.192;-1.552;2024-03-06T13:05:28;1.20;;;0.82;;
78995;SDS011;68401;47.192;-1.552;2024-03-06T13:07:54;1.52;;;0.82;;
78995;SDS011;68401;47.192;-1.552;2024-03-06T13:10:19;3.60;;;0.98;;
78995;SDS011;68401;47.192;-1.552;2024-03-06T13:12:47;1.00;;;0.77;;
78995;SDS011;68401;47.192;-1.552;2024-03-06T13:15:12;1.58;;;0.98;;
78995;SDS011;68401;47.192;-1.552;2024-03-06T13:17:40;2.58;;;1.02;;
78995;SDS011;68401;47.192;-1.552;2024-03-06T13:20:06;4.95;;;1.10;;
78995;SDS011;68401;47.192;-1.552;2024-03-06T13:22:36;1.05;;;0.90;;
78995;SDS011;68401;47.192;-1.552;2024-03-06T13:25:09;3.90;;;2.00;;
78995;SDS011;68401;47.192;-1.552;2024-03-06T13:27:35;2.45;;;1.30;;
78995;SDS011;68401;47.192;-1.552;2024-03-06T13:30:00;1.88;;;1.30;;
78995;SDS011;68401;47.192;-1.552;2024-03-06T13:32:30;2.17;;;1.35;;
78995;SDS011;68401;47.192;-1.552;2024-03-06T13:34:55;2.15;;;1.30;;
78995;SDS011;68401;47.192;-1.552;2024-03-06T13:37:21;3.22;;;1.33;;
78995;SDS011;68401;47.192;-1.552;2024-03-06T13:39:53;2.15;;;1.30;;
78995;SDS011;68401;47.192;-1.552;2024-03-06T13:42:23;1.80;;;1.08;;
78995;SDS011;68401;47.192;-1.552;2024-03-06T13:44:48;3.30;;;0.90;;
78995;SDS011;68401;47.192;-1.552;2024-03-06T13:47:16;1.67;;;0.88;;
78995;SDS011;68401;47.192;-1.552;2024-03-06T13:49:45;1.90;;;0.90;;
78995;SDS011;68401;47.192;-1.552;2024-03-06T13:52:10;2.72;;;0.80;;
78995;SDS011;68401;47.192;-1.552;2024-03-06T13:54:41;1.60;;;0.88;;
78995;SDS011;68401;47.192;-1.552;2024-03-06T13:57:08;1.95;;;1.10;;
78995;SDS011;68401;47.192;-1.552;2024-03-06T13:59:34;4.07;;;1.83;;
78995;SDS011;68401;47.192;-1.552;2024-03-06T14:02:00;2.60;;;1.25;;
78995;SDS011;68401;47.192;-1.552;2024-03-06T14:04:28;2.70;;;1.60;;
78995;SDS011;68401;47.192;-1.552;2024-03-06T14:06:54;5.45;;;3.08;;
78995;SDS011;68401;47.192;-1.552;2024-03-06T14:09:22;2.78;;;1.92;;
78995;SDS011;68401;47.192;-1.552;2024-03-06T14:11:49;3.60;;;1.35;;
78995;SDS011;68401;47.192;-1.552;2024-03-06T14:14:15;1.88;;;1.05;;
78995;SDS011;68401;47.192;-1.552;2024-03-06T14:16:41;2.75;;;1.65;;
78995;SDS011;68401;47.192;-1.552;2024-03-06T14:19:07;2.30;;;1.17;;
78995;SDS011;68401;47.192;-1.552;2024-03-06T14:21:33;3.22;;;1.33;;
78995;SDS011;68401;47.192;-1.552;2024-03-06T14:24:00;2.58;;;1.45;;
78995;SDS011;68401;47.192;-1.552;2024-03-06T14:26:28;2.10;;;1.20;;
78995;SDS011;68401;47.192;-1.552;2024-03-06T14:28:54;2.42;;;1.17;;
78995;SDS011;68401;47.192;-1.552;2024-03-06T14:31:20;4.03;;;1.30;;
78995;SDS011;68401;47.192;-1.552;2024-03-06T14:33:45;2.20;;;1.30;;
78995;SDS011;68401;47.192;-1.552;2024-03-06T14:36:11;3.28;;;2.17;;
78995;SDS011;68401;47.192;-1.552;2024-03-06T14:38:37;2.58;;;1.80;;
78995;SDS011;68401;47.192;-1.552;2024-03-06T14:41:03;5.15;;;2.63;;
78995;SDS011;68401;47.192;-1.552;2024-03-06T14:43:35;1.85;;;1.05;;
78995;SDS011;68401;47.192;-1.552;2024-03-06T14:46:03;2.50;;;1.00;;